KLCI/LCI METAR and TAF weather

Enter ICAO airport designator
Station Type Date Time Source
KLCI METAR 2019/02/20 23:56 UTC NOAA

KLCI 202356Z AUTO 00000KT 10SM BKN085 OVC110 M05/M12 A3036 RMK AO2 SLP301 T10501117 11028 21050 58010 FZRANO $


Station Type Date Time Source
KLCI Decoded METAR 2019/02/20 23:56 UTC NOAA

Laconia, Laconia Municipal Airport, NH, United States (KLCI) 43-34N 071-25W
Feb 20, 2019 - 06:56 PM EST / 2019.02.20 2356 UTC
Wind: Calm:0
Visibility: 10 mile(s):0
Sky conditions: overcast
Temperature: 23.0 F (-5.0 C)
Dew Point: 10.9 F (-11.7 C)
Relative Humidity: 59%
Pressure (altimeter): 30.36 in. Hg (1028 hPa)
Pressure tendency: 0.03 inches (1.0 hPa) lower than three hours ago
ob: KLCI 202356Z AUTO 00000KT 10SM BKN085 OVC110 M05/M12 A3036 RMK AO2 SLP301 T10501117 11028 21050 58010 FZRANO
cycle: 0

Station Type Date Time Source
KLCI TAF UTC NOAA

Error!


Example: see airport list